Time;durP1;ratioP1;P1;durP2;ratioP2;P2;SDS_P1;SDS_P2;PMS_P1;PMS_P2;Temp;Humidity;BMP_temperature;BMP_pressure;BME280_temperature;BME280_humidity;BME280_pressure;Samples;Min_cycle;Max_cycle;Signal;HPM_P1;HPM_P2
2022/06/02 00:00:16;;;;;;;7.07;5.40;;;;;12.00;96335.00;;;;8431140;28;20567;-67
2022/06/02 00:04:24;;;;;;;10.23;5.65;;;;;11.90;96335.00;;;;8419517;27;20222;-67
2022/06/02 00:08:38;;;;;;;5.90;5.30;;;;;11.90;96336.00;;;;8438525;28;20233;-66
2022/06/02 00:12:47;;;;;;;12.45;7.10;;;;;11.90;96336.00;;;;8436042;28;22463;-66
2022/06/02 00:17:00;;;;;;;7.35;6.00;;;;;12.00;96334.00;;;;8436024;28;20834;-66
2022/06/02 00:21:17;;;;;;;10.43;6.28;;;;;12.00;96331.00;;;;8438324;28;20236;-66
2022/06/02 00:25:31;;;;;;;9.57;6.38;;;;;12.10;96342.00;;;;8440646;28;20236;-67
2022/06/02 00:29:42;;;;;;;12.27;6.45;;;;;12.10;96337.00;;;;8444958;28;20744;-67
2022/06/02 00:34:02;;;;;;;9.05;6.28;;;;;12.00;96337.00;;;;8431303;27;20231;-67
2022/06/02 00:38:14;;;;;;;9.73;6.57;;;;;11.90;96340.00;;;;8441583;28;20222;-67
2022/06/02 00:42:39;;;;;;;9.52;6.28;;;;;11.70;96341.00;;;;8443356;28;20225;-67
2022/06/02 00:46:55;;;;;;;10.23;6.40;;;;;11.70;96348.00;;;;8438874;27;20229;-67
2022/06/02 00:51:04;;;;;;;10.23;5.72;;;;;11.60;96355.00;;;;8439103;28;20248;-67
2022/06/02 00:59:44;;;;;;;9.60;6.88;;;;;11.40;96371.00;;;;8430405;27;20675;-68
2022/06/02 01:03:49;;;;;;;11.23;6.80;;;;;11.30;96367.00;;;;8420035;28;20320;-68
2022/06/02 01:08:04;;;;;;;10.02;6.55;;;;;11.10;96373.00;;;;8437535;28;21068;-68
2022/06/02 01:12:21;;;;;;;10.60;6.63;;;;;11.10;96381.00;;;;8415741;27;20744;-68
2022/06/02 01:16:30;;;;;;;13.13;6.83;;;;;11.00;96389.00;;;;8430640;28;20646;-67
2022/06/02 01:20:51;;;;;;;11.40;6.72;;;;;10.90;96397.00;;;;8424465;28;20223;-67
2022/06/02 01:25:16;;;;;;;12.73;7.03;;;;;10.90;96398.00;;;;8438045;28;20244;-67
2022/06/02 01:29:53;;;;;;;13.77;6.67;;;;;10.90;96399.00;;;;8437001;27;20257;-66
2022/06/02 01:34:04;;;;;;;11.27;6.75;;;;;10.80;96387.00;;;;8436637;28;20229;-67
2022/06/02 01:38:15;;;;;;;12.07;7.20;;;;;10.70;96397.00;;;;8433984;28;20219;-67
2022/06/02 01:42:28;;;;;;;13.20;8.15;;;;;10.60;96398.00;;;;8436733;28;20251;-67
2022/06/02 01:46:43;;;;;;;14.97;7.20;;;;;10.60;96399.00;;;;8436861;27;20237;-66
2022/06/02 01:50:59;;;;;;;16.33;8.03;;;;;10.60;96402.00;;;;8404380;27;20284;-67
2022/06/02 01:55:15;;;;;;;11.03;7.30;;;;;10.50;96401.00;;;;8440595;27;20232;-67
2022/06/02 01:59:38;;;;;;;14.70;8.30;;;;;10.50;96414.00;;;;8438235;28;20219;-67
2022/06/02 02:03:55;;;;;;;11.07;7.28;;;;;10.40;96412.00;;;;8445162;27;20806;-67
2022/06/02 02:08:20;;;;;;;16.15;8.25;;;;;10.40;96419.00;;;;8441270;28;20222;-66
2022/06/02 02:12:38;;;;;;;14.57;8.90;;;;;10.50;96422.00;;;;8436894;27;20313;-66
2022/06/02 02:16:52;;;;;;;8.83;7.03;;;;;11.00;96429.00;;;;8439074;27;20231;-66
2022/06/02 02:21:15;;;;;;;7.63;5.63;;;;;11.40;96427.00;;;;8409668;27;20591;-67
2022/06/02 02:25:27;;;;;;;5.83;5.23;;;;;11.60;96434.00;;;;8434893;28;20210;-66
2022/06/02 02:29:40;;;;;;;6.80;5.28;;;;;11.80;96430.00;;;;8443539;27;20231;-66
2022/06/02 02:33:51;;;;;;;9.15;4.65;;;;;11.90;96438.00;;;;8415128;28;20725;-67
2022/06/02 02:37:58;;;;;;;4.90;4.32;;;;;11.90;96436.00;;;;8442027;28;20227;-67
2022/06/02 02:42:08;;;;;;;5.60;4.60;;;;;11.90;96431.00;;;;8444094;27;20705;-67
2022/06/02 02:46:15;;;;;;;4.68;4.28;;;;;12.00;96436.00;;;;8448796;27;20226;-67
2022/06/02 02:50:25;;;;;;;4.10;3.70;;;;;12.00;96445.00;;;;8443283;27;20233;-67
2022/06/02 02:54:34;;;;;;;7.22;4.15;;;;;12.00;96452.00;;;;8436739;27;20242;-67
2022/06/02 02:58:44;;;;;;;4.47;4.05;;;;;12.00;96453.00;;;;8436597;27;20652;-67
2022/06/02 03:02:57;;;;;;;4.40;3.70;;;;;12.00;96456.00;;;;8430579;22;20230;-66
2022/06/02 03:07:01;;;;;;;5.18;3.97;;;;;12.00;96462.00;;;;8403611;28;20249;-66
2022/06/02 03:11:18;;;;;;;6.75;4.35;;;;;12.00;96470.00;;;;8408529;28;20254;-66
2022/06/02 03:15:31;;;;;;;5.10;3.88;;;;;11.90;96469.00;;;;8380963;28;20226;-66
2022/06/02 03:19:41;;;;;;;4.47;3.70;;;;;11.80;96462.00;;;;8410355;28;20645;-67
2022/06/02 03:24:20;;;;;;;5.53;4.30;;;;;11.80;96464.00;;;;8412279;28;20227;-66
2022/06/02 03:28:29;;;;;;;6.00;4.10;;;;;11.80;96466.00;;;;8412123;28;20231;-67
2022/06/02 03:32:48;;;;;;;5.03;4.18;;;;;11.90;96463.00;;;;8412860;28;20863;-66
2022/06/02 03:37:16;;;;;;;4.88;3.80;;;;;11.90;96463.00;;;;8408425;28;20226;-66
2022/06/02 03:41:33;;;;;;;4.43;4.03;;;;;11.90;96475.00;;;;8412889;28;20223;-67
2022/06/02 03:45:53;;;;;;;4.32;3.92;;;;;11.90;96470.00;;;;8412279;28;20233;-67
2022/06/02 03:50:22;;;;;;;4.90;4.50;;;;;12.00;96480.00;;;;8406358;28;20233;-67
2022/06/02 03:54:52;;;;;;;8.95;4.22;;;;;12.00;96480.00;;;;8411533;28;20302;-66
2022/06/02 03:59:05;;;;;;;4.43;3.95;;;;;12.20;96483.00;;;;8383232;28;20780;-65
2022/06/02 04:03:09;;;;;;;4.35;3.95;;;;;12.30;96493.00;;;;8386443;28;20233;-66
2022/06/02 04:07:35;;;;;;;7.78;4.20;;;;;12.50;96495.00;;;;8353963;28;20244;-66
2022/06/02 04:16:37;;;;;;;4.00;3.70;;;;;13.10;96498.00;;;;8339155;28;20233;-65
2022/06/02 04:20:55;;;;;;;8.13;4.95;;;;;13.30;96503.00;;;;8370244;28;20676;-65
2022/06/02 04:25:21;;;;;;;9.50;4.13;;;;;13.60;96512.00;;;;8369598;28;20745;-66
2022/06/02 04:29:41;;;;;;;6.70;4.40;;;;;13.80;96524.00;;;;8376297;28;20229;-66
2022/06/02 04:33:52;;;;;;;3.95;3.55;;;;;14.20;96532.00;;;;8379682;28;20291;-65
2022/06/02 04:38:05;;;;;;;5.20;3.80;;;;;14.60;96533.00;;;;8378828;28;20247;-65
2022/06/02 04:42:17;;;;;;;6.38;4.00;;;;;14.90;96536.00;;;;8365520;28;20233;-65
2022/06/02 04:46:34;;;;;;;3.90;3.60;;;;;15.20;96534.00;;;;8375547;28;20305;-66
2022/06/02 04:50:44;;;;;;;3.60;3.30;;;;;15.60;96536.00;;;;8377330;28;20249;-67
2022/06/02 04:54:57;;;;;;;3.72;3.42;;;;;15.80;96542.00;;;;8382040;28;20317;-65
2022/06/02 04:59:11;;;;;;;3.67;3.33;;;;;16.20;96533.00;;;;8379190;28;20792;-66
2022/06/02 05:03:21;;;;;;;3.78;3.42;;;;;16.00;96546.00;;;;8373899;28;20682;-67
2022/06/02 05:07:35;;;;;;;4.82;3.58;;;;;15.50;96546.00;;;;8379997;28;20703;-65
2022/06/02 05:11:49;;;;;;;4.40;3.58;;;;;15.20;96550.00;;;;8376181;28;20227;-66
2022/06/02 05:16:07;;;;;;;7.40;3.50;;;;;15.10;96553.00;;;;8384794;28;20227;-65
2022/06/02 05:20:33;;;;;;;3.30;3.00;;;;;15.10;96557.00;;;;8386332;28;20231;-67
2022/06/02 05:25:12;;;;;;;4.93;3.53;;;;;15.00;96563.00;;;;8376522;28;20691;-65
2022/06/02 05:29:32;;;;;;;4.10;3.55;;;;;15.00;96557.00;;;;8383372;28;20313;-65
2022/06/02 05:34:06;;;;;;;3.25;3.05;;;;;15.00;96572.00;;;;8386266;28;20249;-66
2022/06/02 05:38:36;;;;;;;3.35;3.05;;;;;15.10;96568.00;;;;8383769;28;20699;-65
2022/06/02 05:42:50;;;;;;;4.60;3.17;;;;;15.60;96574.00;;;;8355573;28;20228;-66
2022/06/02 05:47:20;;;;;;;4.43;2.83;;;;;16.20;96579.00;;;;8379643;28;20237;-66
2022/06/02 05:51:31;;;;;;;3.50;3.20;;;;;16.90;96582.00;;;;8357220;28;20224;-67
2022/06/02 05:55:52;;;;;;;2.95;2.67;;;;;17.30;96592.00;;;;8379453;28;20612;-66
2022/06/02 06:00:06;;;;;;;3.83;3.13;;;;;17.90;96585.00;;;;8382609;28;20234;-65
2022/06/02 06:04:31;;;;;;;3.10;2.90;;;;;17.90;96595.00;;;;8378503;28;20289;-65
2022/06/02 06:08:48;;;;;;;4.22;3.10;;;;;18.20;96598.00;;;;8371654;28;20216;-64
2022/06/02 06:13:17;;;;;;;3.10;2.90;;;;;19.30;96596.00;;;;8379731;28;20307;-65
2022/06/02 06:17:26;;;;;;;9.07;3.00;;;;;20.00;96605.00;;;;8376570;28;20231;-65
2022/06/02 06:21:44;;;;;;;3.97;3.25;;;;;20.10;96606.00;;;;8380894;28;20307;-65
2022/06/02 06:26:01;;;;;;;4.25;3.20;;;;;20.20;96615.00;;;;8375334;28;20236;-66
2022/06/02 06:30:18;;;;;;;3.40;3.15;;;;;20.80;96620.00;;;;8367598;28;20223;-66
2022/06/02 06:34:35;;;;;;;7.00;3.83;;;;;21.10;96626.00;;;;8379800;28;20649;-66
2022/06/02 06:39:01;;;;;;;3.33;3.03;;;;;21.20;96623.00;;;;8378897;28;20310;-66
2022/06/02 06:43:19;;;;;;;4.25;3.10;;;;;21.90;96624.00;;;;8381567;28;20236;-66
2022/06/02 06:47:29;;;;;;;4.80;3.03;;;;;22.10;96622.00;;;;8382003;28;20277;-67
2022/06/02 06:51:40;;;;;;;3.25;2.95;;;;;22.50;96634.00;;;;8378212;28;20227;-68
2022/06/02 06:55:56;;;;;;;3.55;2.83;;;;;23.00;96642.00;;;;8378069;28;20677;-65
2022/06/02 07:00:07;;;;;;;5.28;2.92;;;;;23.00;96643.00;;;;8347834;28;20224;-64
2022/06/02 07:04:21;;;;;;;4.80;2.88;;;;;23.10;96644.00;;;;8377430;28;20346;-62
2022/06/02 07:08:33;;;;;;;5.50;3.03;;;;;23.20;96640.00;;;;8379086;28;20303;-63
2022/06/02 07:13:02;;;;;;;2.67;2.47;;;;;23.30;96642.00;;;;8390076;28;20707;-62
2022/06/02 07:17:36;;;;;;;3.95;2.40;;;;;23.30;96645.00;;;;8390625;28;20704;-63
2022/06/02 07:22:43;;;;;;;3.17;2.28;;;;;23.10;96638.00;;;;8389766;28;20272;-63
2022/06/02 07:27:13;;;;;;;2.30;2.13;;;;;22.80;96650.00;;;;8394641;28;20238;-63
2022/06/02 07:32:02;;;;;;;2.13;2.00;;;;;22.40;96642.00;;;;8389308;28;20675;-63
2022/06/02 07:36:42;;;;;;;10.20;2.75;;;;;22.60;96647.00;;;;8390651;28;20220;-63
2022/06/02 07:41:17;;;;;;;2.20;2.08;;;;;22.80;96645.00;;;;8388744;28;20211;-64
2022/06/02 07:45:50;;;;;;;1.80;1.70;;;;;23.10;96650.00;;;;8393630;28;20552;-63
2022/06/02 07:50:20;;;;;;;1.90;1.80;;;;;23.80;96656.00;;;;8389694;28;20637;-63
2022/06/02 07:54:58;;;;;;;2.20;2.10;;;;;24.00;96661.00;;;;8319596;28;20224;-64
2022/06/02 07:59:29;;;;;;;2.30;1.92;;;;;24.30;96659.00;;;;8375435;28;20215;-64
2022/06/02 08:03:47;;;;;;;2.55;2.10;;;;;24.90;96659.00;;;;8337443;28;20323;-64
2022/06/02 08:08:13;;;;;;;2.17;2.03;;;;;25.10;96661.00;;;;8359197;28;20245;-64
2022/06/02 08:12:49;;;;;;;4.45;1.80;;;;;26.20;96669.00;;;;8393246;28;20613;-64
2022/06/02 08:17:22;;;;;;;2.17;1.95;;;;;26.00;96665.00;;;;8390245;28;20306;-63
2022/06/02 08:21:55;;;;;;;2.65;2.10;;;;;26.50;96663.00;;;;8389275;28;20302;-63
2022/06/02 08:26:35;;;;;;;2.10;1.90;;;;;26.90;96661.00;;;;8388203;28;20215;-63
2022/06/02 08:31:16;;;;;;;4.57;2.28;;;;;27.30;96672.00;;;;8385100;28;20314;-63
2022/06/02 08:35:55;;;;;;;2.10;2.00;;;;;27.90;96673.00;;;;8300529;28;20685;-63
2022/06/02 08:40:11;;;;;;;2.47;2.25;;;;;28.80;96682.00;;;;8360463;28;20307;-64
2022/06/02 08:45:08;;;;;;;3.47;2.63;;;;;27.90;96683.00;;;;8398021;28;20235;-63
2022/06/02 08:49:58;;;;;;;3.22;2.50;;;;;27.40;96685.00;;;;8386680;28;20220;-62
2022/06/02 08:54:38;;;;;;;3.80;2.53;;;;;27.60;96686.00;;;;8397311;28;20333;-64
2022/06/02 09:04:13;;;;;;;2.47;2.00;;;;;29.40;96680.00;;;;8318661;28;20234;-64
2022/06/02 09:09:05;;;;;;;2.10;2.00;;;;;30.30;96688.00;;;;8370723;28;20291;-62
2022/06/02 09:13:55;;;;;;;2.85;2.50;;;;;29.80;96688.00;;;;8399287;28;20318;-63
2022/06/02 09:18:19;;;;;;;2.20;2.10;;;;;29.80;96689.00;;;;8267530;28;20225;-63
2022/06/02 09:22:45;;;;;;;3.72;2.00;;;;;30.50;96692.00;;;;8378067;28;20620;-68
2022/06/02 09:27:40;;;;;;;2.25;2.15;;;;;31.30;96691.00;;;;8402338;28;20580;-67
2022/06/02 09:32:03;;;;;;;3.80;2.17;;;;;31.30;96691.00;;;;8266832;28;20338;-67
2022/06/02 09:36:43;;;;;;;2.13;2.00;;;;;31.80;96696.00;;;;8349946;28;20195;-68
2022/06/02 09:40:50;;;;;;;2.38;2.13;;;;;31.80;96701.00;;;;8387043;28;20200;-68
2022/06/02 09:45:37;;;;;;;2.97;1.88;;;;;31.00;96705.00;;;;8402848;28;20559;-67
2022/06/02 09:50:23;;;;;;;3.30;1.90;;;;;30.90;96711.00;;;;8401472;28;20196;-68
2022/06/02 09:54:50;;;;;;;1.88;1.60;;;;;31.30;96707.00;;;;8401321;28;20284;-68
2022/06/02 09:59:23;;;;;;;2.13;2.03;;;;;31.70;96713.00;;;;8400929;28;20271;-68
2022/06/02 10:04:04;;;;;;;2.20;2.10;;;;;32.20;96710.00;;;;8401317;28;20301;-69
2022/06/02 10:08:20;;;;;;;2.20;2.00;;;;;33.10;96716.00;;;;8402264;28;20198;-69
2022/06/02 10:12:58;;;;;;;1.63;1.52;;;;;33.70;96703.00;;;;8400550;28;20283;-68
2022/06/02 10:17:30;;;;;;;5.93;1.73;;;;;34.60;96704.00;;;;8401055;28;20199;-68
2022/06/02 10:22:00;;;;;;;2.15;1.70;;;;;35.40;96710.00;;;;8400738;28;20624;-68
2022/06/02 10:26:38;;;;;;;1.77;1.67;;;;;36.40;96708.00;;;;8401098;28;20207;-68
2022/06/02 10:31:30;;;;;;;1.83;1.73;;;;;37.00;96718.00;;;;8399485;28;20227;-68
2022/06/02 10:36:10;;;;;;;5.32;1.80;;;;;37.20;96708.00;;;;8401216;28;20633;-66
2022/06/02 10:41:07;;;;;;;1.70;1.60;;;;;36.80;96708.00;;;;8400303;28;20180;-66
2022/06/02 10:46:00;;;;;;;1.75;1.65;;;;;35.70;96704.00;;;;8264503;28;20205;-67
2022/06/02 10:50:50;;;;;;;1.80;1.70;;;;;33.60;96703.00;;;;8393711;28;20672;-68
2022/06/02 10:55:30;;;;;;;1.52;1.52;;;;;32.70;96705.00;;;;8399521;28;20625;-67
2022/06/02 11:00:17;;;;;;;2.20;1.83;;;;;31.50;96703.00;;;;8399024;28;20708;-70
2022/06/02 11:10:13;;;;;;;12.20;1.77;;;;;31.60;96696.00;;;;8399256;28;20206;-71
2022/06/02 11:15:04;;;;;;;2.25;1.80;;;;;31.20;96695.00;;;;8392914;28;20306;-71
2022/06/02 11:19:44;;;;;;;2.70;1.77;;;;;30.40;96700.00;;;;8398657;28;20215;-70
2022/06/02 11:24:25;;;;;;;2.00;1.60;;;;;30.50;96701.00;;;;8398856;28;20195;-69
2022/06/02 11:29:17;;;;;;;4.65;1.50;;;;;32.30;96694.00;;;;8398306;28;20641;-69
2022/06/02 11:34:01;;;;;;;2.15;1.58;;;;;33.00;96694.00;;;;8323194;28;20743;-70
2022/06/02 11:38:49;;;;;;;1.73;1.55;;;;;33.00;96693.00;;;;8345736;28;20333;-70
2022/06/02 11:48:08;;;;;;;1.70;1.60;;;;;33.80;96687.00;;;;8366628;28;20572;-70
2022/06/02 11:52:54;;;;;;;1.77;1.67;;;;;35.00;96683.00;;;;8369336;28;20254;-70
2022/06/02 11:57:27;;;;;;;6.53;2.17;;;;;35.90;96681.00;;;;8361064;28;20307;-71
2022/06/02 12:02:06;;;;;;;1.45;1.40;;;;;36.30;96681.00;;;;8359750;28;20309;-71
2022/06/02 12:06:52;;;;;;;1.40;1.30;;;;;36.70;96678.00;;;;8361633;28;20274;-71
2022/06/02 12:11:40;;;;;;;1.80;1.70;;;;;37.20;96665.00;;;;8370919;28;20319;-71
2022/06/02 12:16:19;;;;;;;1.85;1.40;;;;;37.80;96666.00;;;;8238581;28;20572;-71
2022/06/02 12:20:59;;;;;;;3.63;1.83;;;;;37.10;96656.00;;;;8389541;28;20220;-71
2022/06/02 12:25:31;;;;;;;1.40;1.25;;;;;36.70;96657.00;;;;8396499;28;20196;-70
2022/06/02 12:30:03;;;;;;;1.73;1.35;;;;;36.10;96652.00;;;;8398036;28;20612;-70
2022/06/02 12:34:45;;;;;;;1.65;1.55;;;;;35.80;96662.00;;;;8397404;28;20204;-69
2022/06/02 12:39:32;;;;;;;1.95;1.50;;;;;35.00;96660.00;;;;8397236;28;20582;-70
2022/06/02 12:44:10;;;;;;;3.38;1.60;;;;;34.90;96651.00;;;;8396821;28;20194;-69
2022/06/02 12:48:55;;;;;;;1.45;1.30;;;;;34.40;96653.00;;;;8396957;28;20608;-70
2022/06/02 12:53:46;;;;;;;3.88;1.50;;;;;33.70;96657.00;;;;8396846;28;20288;-69
2022/06/02 12:58:35;;;;;;;1.50;1.40;;;;;32.40;96663.00;;;;8396786;28;20228;-71
2022/06/02 13:03:08;;;;;;;4.65;1.40;;;;;31.90;96664.00;;;;8349540;28;20629;-70
2022/06/02 13:08:13;;;;;;;1.30;1.30;;;;;32.10;96663.00;;;;8396338;28;20223;-70
2022/06/02 13:13:08;;;;;;;1.67;1.55;;;;;32.60;96666.00;;;;8396077;28;20311;-69
2022/06/02 13:17:34;;;;;;;4.45;1.65;;;;;33.30;96676.00;;;;8229538;28;20294;-69
2022/06/02 13:27:19;;;;;;;1.38;1.30;;;;;33.20;96658.00;;;;8396854;28;20204;-68
2022/06/02 13:32:02;;;;;;;3.05;1.58;;;;;33.10;96655.00;;;;8401789;28;20307;-68
2022/06/02 13:36:45;;;;;;;4.43;1.60;;;;;32.70;96649.00;;;;8402763;28;20257;-69
2022/06/02 13:41:25;;;;;;;9.25;1.70;;;;;31.70;96645.00;;;;8266019;28;20222;-69
2022/06/02 13:45:54;;;;;;;1.80;1.40;;;;;31.20;96633.00;;;;8353908;28;20242;-68
2022/06/02 13:50:48;;;;;;;2.00;1.42;;;;;31.10;96629.00;;;;8401552;28;20634;-68
2022/06/02 13:59:52;;;;;;;1.67;1.55;;;;;32.70;96628.00;;;;8388236;28;20311;-68
2022/06/02 14:04:22;;;;;;;1.50;1.40;;;;;33.90;96623.00;;;;8387184;28;20234;-68
2022/06/02 14:08:49;;;;;;;1.40;1.30;;;;;34.90;96633.00;;;;8396930;28;20196;-68
2022/06/02 14:13:18;;;;;;;1.77;1.40;;;;;34.70;96633.00;;;;8388706;28;20680;-68
2022/06/02 14:18:07;;;;;;;2.50;1.48;;;;;33.90;96615.00;;;;8400682;28;20244;-68
2022/06/02 14:22:37;;;;;;;2.22;1.42;;;;;34.20;96616.00;;;;8362104;28;20220;-68
2022/06/02 14:27:08;;;;;;;1.40;1.40;;;;;34.60;96620.00;;;;8399730;28;20203;-68
2022/06/02 14:31:43;;;;;;;2.55;1.55;;;;;34.60;96621.00;;;;8355984;28;20219;-68
2022/06/02 14:36:19;;;;;;;2.40;1.30;;;;;35.10;96620.00;;;;8362841;28;20269;-68
2022/06/02 14:40:55;;;;;;;1.50;1.40;;;;;35.20;96623.00;;;;8361276;28;20248;-68
2022/06/02 14:45:06;;;;;;;1.40;1.30;;;;;35.30;96621.00;;;;8374223;28;20220;-69
2022/06/02 14:49:49;;;;;;;1.40;1.30;;;;;34.80;96619.00;;;;8400711;28;20263;-68
2022/06/02 14:54:23;;;;;;;3.08;1.30;;;;;33.90;96613.00;;;;8393537;28;20323;-68
2022/06/02 14:58:39;;;;;;;2.72;1.90;;;;;33.30;96607.00;;;;8387556;28;20269;-69
2022/06/02 15:03:09;;;;;;;1.50;1.40;;;;;32.60;96616.00;;;;8398790;28;20238;-68
2022/06/02 15:08:02;;;;;;;1.83;1.40;;;;;31.40;96602.00;;;;8368511;28;20315;-68
2022/06/02 15:12:35;;;;;;;1.60;1.20;;;;;30.70;96605.00;;;;8399402;28;20696;-69
2022/06/02 15:17:27;;;;;;;1.50;1.40;;;;;31.20;96609.00;;;;8385064;28;20717;-68
2022/06/02 15:21:38;;;;;;;2.15;1.30;;;;;31.50;96609.00;;;;8399769;28;20283;-68
2022/06/02 15:26:18;;;;;;;1.67;1.50;;;;;31.30;96609.00;;;;8399440;28;20532;-68
2022/06/02 15:31:04;;;;;;;3.03;1.40;;;;;31.30;96603.00;;;;8381851;28;20216;-69
2022/06/02 15:35:56;;;;;;;4.55;1.35;;;;;32.00;96601.00;;;;8379192;28;20322;-69
2022/06/02 15:40:37;;;;;;;1.95;1.50;;;;;32.80;96606.00;;;;8385078;28;20231;-69
2022/06/02 15:45:09;;;;;;;3.45;1.40;;;;;33.30;96607.00;;;;8399229;28;20287;-69
2022/06/02 15:49:41;;;;;;;3.72;1.30;;;;;33.30;96598.00;;;;8381841;28;20351;-68
2022/06/02 15:54:25;;;;;;;1.50;1.40;;;;;32.90;96597.00;;;;8385156;28;20684;-69
2022/06/02 15:59:18;;;;;;;1.63;1.52;;;;;32.50;96598.00;;;;8385890;28;20195;-68
2022/06/02 16:04:06;;;;;;;1.92;1.70;;;;;32.60;96596.00;;;;8398426;28;20231;-69
2022/06/02 16:08:50;;;;;;;1.60;1.50;;;;;33.00;96608.00;;;;8398208;28;20199;-68
2022/06/02 16:13:45;;;;;;;4.72;1.48;;;;;32.70;96618.00;;;;8384738;28;20644;-68
2022/06/02 16:18:09;;;;;;;2.03;1.33;;;;;32.30;96620.00;;;;8397495;28;20230;-68
2022/06/02 16:22:41;;;;;;;2.50;1.35;;;;;31.60;96612.00;;;;8385552;28;20303;-68
2022/06/02 16:27:04;;;;;;;1.73;1.38;;;;;30.90;96611.00;;;;8397532;28;20192;-69
2022/06/02 16:31:17;;;;;;;2.03;1.40;;;;;30.80;96617.00;;;;8377861;28;20694;-68
2022/06/02 16:35:32;;;;;;;1.90;1.55;;;;;30.90;96616.00;;;;8370310;28;20219;-68
2022/06/02 16:40:08;;;;;;;1.67;1.30;;;;;30.90;96613.00;;;;8365196;28;20311;-68
2022/06/02 16:44:45;;;;;;;6.88;1.70;;;;;31.00;96616.00;;;;8360364;28;20314;-68
2022/06/02 16:49:26;;;;;;;1.75;1.40;;;;;31.40;96626.00;;;;8311959;28;20374;-68
2022/06/02 16:53:55;;;;;;;2.58;1.40;;;;;31.80;96627.00;;;;8395892;28;20220;-69
2022/06/02 16:58:26;;;;;;;1.30;1.30;;;;;31.50;96627.00;;;;8397659;28;20672;-68
2022/06/02 17:02:47;;;;;;;1.75;1.30;;;;;30.90;96622.00;;;;8398808;28;20315;-68
2022/06/02 17:07:04;;;;;;;9.15;1.60;;;;;30.50;96631.00;;;;8403847;28;20540;-69
2022/06/02 17:11:14;;;;;;;2.08;1.70;;;;;30.60;96627.00;;;;8402837;28;20644;-68
2022/06/02 17:16:01;;;;;;;4.93;1.70;;;;;31.20;96624.00;;;;8403029;28;20224;-68
2022/06/02 17:20:26;;;;;;;5.22;1.40;;;;;32.00;96622.00;;;;8402282;28;20246;-69
2022/06/02 17:25:06;;;;;;;1.50;1.40;;;;;32.60;96617.00;;;;8398154;28;20275;-68
2022/06/02 17:29:48;;;;;;;2.15;1.58;;;;;32.90;96617.00;;;;8402384;28;20660;-68
2022/06/02 17:33:58;;;;;;;3.90;1.98;;;;;33.10;96619.00;;;;8399852;28;20266;-69
2022/06/02 17:38:41;;;;;;;8.25;1.67;;;;;33.00;96608.00;;;;8400267;28;20275;-69
2022/06/02 17:43:00;;;;;;;2.20;1.30;;;;;32.90;96614.00;;;;8395629;28;20246;-69
2022/06/02 17:47:37;;;;;;;3.85;1.30;;;;;32.80;96618.00;;;;8401076;28;20608;-69
2022/06/02 17:52:17;;;;;;;2.85;1.38;;;;;32.70;96607.00;;;;8401370;28;20231;-70
2022/06/02 17:56:32;;;;;;;1.70;1.60;;;;;31.40;96613.00;;;;8401506;28;20224;-70
2022/06/02 18:00:44;;;;;;;2.92;1.70;;;;;30.10;96611.00;;;;8400683;28;20284;-67
2022/06/02 18:10:23;;;;;;;1.50;1.40;;;;;27.80;96600.00;;;;8398885;28;20750;-67
2022/06/02 18:15:04;;;;;;;10.73;1.95;;;;;26.90;96595.00;;;;8394347;28;20248;-67
2022/06/02 18:19:29;;;;;;;2.38;1.50;;;;;26.20;96600.00;;;;8400529;28;20196;-68
2022/06/02 18:24:03;;;;;;;13.13;1.83;;;;;25.40;96592.00;;;;8400124;28;20257;-68
2022/06/02 18:28:41;;;;;;;5.43;1.80;;;;;24.90;96585.00;;;;8399657;28;20283;-68
2022/06/02 18:33:38;;;;;;;1.70;1.60;;;;;24.40;96585.00;;;;8400179;28;20211;-66
2022/06/02 18:38:27;;;;;;;1.60;1.50;;;;;23.90;96586.00;;;;8400446;28;20283;-66
2022/06/02 18:43:13;;;;;;;4.45;1.90;;;;;23.40;96587.00;;;;8399439;28;20278;-65
2022/06/02 18:47:50;;;;;;;2.33;2.13;;;;;22.90;96591.00;;;;8398903;28;20193;-67
2022/06/02 18:52:21;;;;;;;2.97;2.08;;;;;22.70;96592.00;;;;8399151;28;20696;-66
2022/06/02 18:57:00;;;;;;;2.20;2.00;;;;;22.40;96597.00;;;;8399471;28;20322;-66
2022/06/02 19:01:31;;;;;;;3.70;1.77;;;;;22.30;96607.00;;;;8398551;28;20228;-65
2022/06/02 19:15:54;;;;;;;2.78;1.58;;;;;21.60;96604.00;;;;8399025;28;20228;-66
2022/06/02 19:20:38;;;;;;;4.40;1.70;;;;;21.50;96603.00;;;;8397464;28;20246;-66
2022/06/02 19:25:28;;;;;;;2.45;1.80;;;;;21.40;96618.00;;;;8396521;28;20278;-68
2022/06/02 19:30:05;;;;;;;2.03;1.65;;;;;21.10;96620.00;;;;8398860;28;20690;-68
2022/06/02 19:34:32;;;;;;;2.55;1.50;;;;;20.90;96623.00;;;;8398938;28;20310;-67
2022/06/02 19:39:10;;;;;;;1.63;1.50;;;;;20.70;96630.00;;;;8397551;28;20671;-68
2022/06/02 19:43:21;;;;;;;2.05;1.85;;;;;20.50;96622.00;;;;8397354;28;20231;-68
2022/06/02 19:47:54;;;;;;;6.60;1.75;;;;;20.30;96631.00;;;;8397875;28;20204;-67
2022/06/02 19:52:31;;;;;;;1.40;1.40;;;;;20.10;96629.00;;;;8396912;28;20274;-67
2022/06/02 19:56:45;;;;;;;1.70;1.60;;;;;19.90;96630.00;;;;8398294;28;20208;-67
2022/06/02 20:01:03;;;;;;;2.03;1.75;;;;;19.70;96627.00;;;;8397880;28;20235;-67
2022/06/02 20:10:29;;;;;;;2.03;1.83;;;;;19.50;96627.00;;;;8397646;28;20266;-68
2022/06/02 20:14:38;;;;;;;1.70;1.60;;;;;19.50;96629.00;;;;8397760;28;20759;-68
2022/06/02 20:18:46;;;;;;;2.00;1.90;;;;;19.50;96635.00;;;;8398870;28;20219;-68
2022/06/02 20:22:54;;;;;;;3.83;1.75;;;;;19.50;96631.00;;;;8397430;28;20653;-68
2022/06/02 20:27:05;;;;;;;3.40;1.88;;;;;19.40;96637.00;;;;8397540;28;20200;-68
2022/06/02 20:31:16;;;;;;;3.10;2.28;;;;;19.40;96630.00;;;;8397847;28;20677;-68
2022/06/02 20:35:25;;;;;;;2.58;1.75;;;;;19.30;96636.00;;;;8396854;28;20208;-68
2022/06/02 20:39:42;;;;;;;3.83;2.10;;;;;19.20;96644.00;;;;8403171;28;20216;-68
2022/06/02 20:43:54;;;;;;;4.00;2.00;;;;;19.10;96645.00;;;;8404452;28;20264;-68
2022/06/02 20:48:03;;;;;;;3.45;2.88;;;;;19.10;96643.00;;;;8403616;28;20694;-68
2022/06/02 20:52:42;;;;;;;2.25;2.10;;;;;19.00;96642.00;;;;8403574;28;20367;-68
2022/06/02 20:56:47;;;;;;;3.72;1.95;;;;;19.00;96641.00;;;;8403314;28;20726;-67
2022/06/02 21:00:57;;;;;;;2.15;1.90;;;;;19.00;96642.00;;;;8403282;28;20279;-68
2022/06/02 21:05:09;;;;;;;2.30;1.90;;;;;19.00;96648.00;;;;8401663;28;20231;-68
2022/06/02 21:09:20;;;;;;;2.10;1.90;;;;;19.10;96648.00;;;;8401067;28;20281;-67
2022/06/02 21:13:30;;;;;;;2.00;1.90;;;;;19.10;96641.00;;;;8401071;28;20275;-67
2022/06/02 21:18:04;;;;;;;2.90;2.10;;;;;19.10;96642.00;;;;8400389;28;20177;-67
2022/06/02 21:22:14;;;;;;;4.30;2.10;;;;;19.10;96647.00;;;;8400742;28;20232;-68
2022/06/02 21:26:23;;;;;;;2.10;1.90;;;;;19.00;96641.00;;;;8400660;28;20644;-67
2022/06/02 21:30:54;;;;;;;1.70;1.60;;;;;18.90;96640.00;;;;8401452;28;20227;-68
2022/06/02 21:35:02;;;;;;;2.45;1.85;;;;;18.90;96642.00;;;;8399435;28;20220;-68
2022/06/02 21:39:36;;;;;;;3.08;1.98;;;;;18.70;96643.00;;;;8399797;28;20283;-69
2022/06/02 21:43:44;;;;;;;2.33;1.73;;;;;18.60;96651.00;;;;8401055;28;20200;-69
2022/06/02 21:48:07;;;;;;;1.77;1.60;;;;;18.40;96636.00;;;;8399661;28;20219;-68
2022/06/02 21:52:38;;;;;;;1.88;1.77;;;;;18.20;96655.00;;;;8400579;28;20200;-68
2022/06/02 21:56:46;;;;;;;2.72;2.00;;;;;18.10;96650.00;;;;8399669;28;20259;-68
2022/06/02 22:01:24;;;;;;;2.70;1.80;;;;;17.90;96641.00;;;;8399721;28;20681;-68
2022/06/02 22:05:33;;;;;;;2.35;1.90;;;;;17.80;96643.00;;;;8358006;28;1211955;-68
2022/06/02 22:09:39;;;;;;;3.15;2.08;;;;;17.80;96633.00;;;;8400799;28;20212;-68
2022/06/02 22:13:54;;;;;;;2.33;2.10;;;;;17.60;96625.00;;;;8400941;28;20282;-68
2022/06/02 22:18:03;;;;;;;2.35;1.67;;;;;17.50;96626.00;;;;8401427;28;20261;-68
2022/06/02 22:22:10;;;;;;;1.77;1.67;;;;;17.30;96619.00;;;;8400778;28;20283;-68
2022/06/02 22:26:47;;;;;;;3.65;1.90;;;;;17.10;96615.00;;;;8400656;28;20275;-68
2022/06/02 22:31:19;;;;;;;2.10;1.90;;;;;17.00;96616.00;;;;8399768;28;20267;-68
2022/06/02 22:35:38;;;;;;;3.65;1.83;;;;;16.80;96619.00;;;;8399990;28;20354;-68
2022/06/02 22:40:10;;;;;;;1.77;1.67;;;;;16.70;96617.00;;;;8400103;28;20259;-69
2022/06/02 22:44:51;;;;;;;2.95;2.13;;;;;16.70;96614.00;;;;8400175;28;20644;-69
2022/06/02 22:49:09;;;;;;;1.95;1.85;;;;;16.70;96613.00;;;;8400119;28;20231;-69
2022/06/02 22:53:40;;;;;;;2.45;1.90;;;;;16.70;96612.00;;;;8400832;28;20522;-69
2022/06/02 22:58:17;;;;;;;4.80;2.03;;;;;16.70;96604.00;;;;8399649;28;20601;-69
2022/06/02 23:02:53;;;;;;;6.03;1.88;;;;;16.60;96595.00;;;;8399424;28;20322;-68
2022/06/02 23:07:16;;;;;;;10.07;2.20;;;;;16.50;96600.00;;;;8399173;28;20204;-69